Main page
METAR-TAF:

METAR-TAF

Airports :

Birmingham Airport

Birmingham, England

latitude: 52-27N, longitude: 001-44W, elevation: 99 m

Current weather observation

The report was made 34 minutes ago, at 17:50 UTC
Wind 8 kt from the West, varying between Southwest and West/Northwest
Temperature 7°C
Humidity 76%
Pressure 1022 hPa
Visibility 10 km or more
Few clouds at a height of 4600 ft

METAR: EGBB 291750Z 26008KT 220V290 9999 FEW046 07/03 Q1022

Time: 18:24 (18:24 UTC)

Forecast

The report was made 1 hour and 25 minutes ago, at 16:59 UTC
Forecast valid from 29 at 18 UTC to 30 at 18 UTC
Wind 8 kt from the West/Southwest
Visibility 10 km or more
Scattered clouds at a height of 2000 ft
Temporary
from 29 at 18 UTC to 30 at 02 UTC
Broken clouds at a height of 1200 ft
Probability 30% :
Temporary
from 29 at 21 UTC to 30 at 02 UTC
Visibility: 7000 m
light rain, drizzle

TAF: EGBB 291659Z 2918/3018 25008KT 9999 SCT020 TEMPO 2918/3002 BKN012 PROB30 TEMPO 2921/3002 7000 -RADZ

Weather observations and forecasts of more than 4000 airports (METAR and TAF reports).

The available stations are represented by yellow and red dots on the map.

Hover mouse over dot to see the name of the station.

Then click to see weather observations and forecasts.

To change the map : click on the green buttons with a black cross to zoom in, on the green button with a dash to zoom out, or on the green arrows for adjacent maps.


METAR-TAF: